sensor_id;sensor_type;location;lat;lon;timestamp;P1;durP1;ratioP1;P2;durP2;ratioP2
19965;SDS011;10144;50.874;4.762;2022-12-24T00:02:26;38.23;;;4.67;;
19965;SDS011;10144;50.874;4.762;2022-12-24T00:04:55;29.77;;;4.00;;
19965;SDS011;10144;50.874;4.762;2022-12-24T00:07:21;40.83;;;3.63;;
19965;SDS011;10144;50.874;4.762;2022-12-24T00:09:48;34.90;;;4.60;;
19965;SDS011;10144;50.874;4.762;2022-12-24T00:12:26;39.03;;;4.47;;
19965;SDS011;10144;50.874;4.762;2022-12-24T00:17:30;37.40;;;4.30;;
19965;SDS011;10144;50.874;4.762;2022-12-24T00:19:59;35.60;;;4.40;;
19965;SDS011;10144;50.874;4.762;2022-12-24T00:22:27;42.93;;;3.90;;
19965;SDS011;10144;50.874;4.762;2022-12-24T00:27:25;33.53;;;4.43;;
19965;SDS011;10144;50.874;4.762;2022-12-24T00:30:04;34.50;;;4.17;;
19965;SDS011;10144;50.874;4.762;2022-12-24T00:32:32;35.17;;;4.70;;
19965;SDS011;10144;50.874;4.762;2022-12-24T00:35:01;32.37;;;4.10;;
19965;SDS011;10144;50.874;4.762;2022-12-24T00:37:26;30.67;;;4.13;;
19965;SDS011;10144;50.874;4.762;2022-12-24T00:39:55;44.70;;;4.93;;
19965;SDS011;10144;50.874;4.762;2022-12-24T00:42:21;32.80;;;4.40;;
19965;SDS011;10144;50.874;4.762;2022-12-24T00:47:17;44.77;;;4.67;;
19965;SDS011;10144;50.874;4.762;2022-12-24T00:54:52;29.03;;;3.80;;
19965;SDS011;10144;50.874;4.762;2022-12-24T00:57:21;34.07;;;3.73;;
19965;SDS011;10144;50.874;4.762;2022-12-24T00:59:46;38.73;;;4.50;;
19965;SDS011;10144;50.874;4.762;2022-12-24T01:02:13;31.17;;;3.93;;
19965;SDS011;10144;50.874;4.762;2022-12-24T01:04:43;46.93;;;4.97;;
19965;SDS011;10144;50.874;4.762;2022-12-24T01:07:30;31.70;;;4.30;;
19965;SDS011;10144;50.874;4.762;2022-12-24T01:09:59;32.57;;;4.23;;
19965;SDS011;10144;50.874;4.762;2022-12-24T01:12:26;41.17;;;4.27;;
19965;SDS011;10144;50.874;4.762;2022-12-24T01:14:55;35.30;;;4.13;;
19965;SDS011;10144;50.874;4.762;2022-12-24T01:19:52;37.87;;;4.37;;
19965;SDS011;10144;50.874;4.762;2022-12-24T01:22:18;35.57;;;3.80;;
19965;SDS011;10144;50.874;4.762;2022-12-24T01:24:46;32.37;;;4.00;;
19965;SDS011;10144;50.874;4.762;2022-12-24T01:27:12;33.07;;;3.87;;
19965;SDS011;10144;50.874;4.762;2022-12-24T01:29:38;39.43;;;4.57;;
19965;SDS011;10144;50.874;4.762;2022-12-24T01:32:07;43.53;;;4.67;;
19965;SDS011;10144;50.874;4.762;2022-12-24T01:34:41;29.07;;;3.33;;
19965;SDS011;10144;50.874;4.762;2022-12-24T01:37:14;32.90;;;3.60;;
19965;SDS011;10144;50.874;4.762;2022-12-24T01:39:40;33.60;;;3.77;;
19965;SDS011;10144;50.874;4.762;2022-12-24T01:42:20;36.83;;;4.23;;
19965;SDS011;10144;50.874;4.762;2022-12-24T01:48:18;36.97;;;3.33;;
19965;SDS011;10144;50.874;4.762;2022-12-24T01:50:49;23.50;;;3.23;;
19965;SDS011;10144;50.874;4.762;2022-12-24T01:53:22;24.70;;;3.57;;
19965;SDS011;10144;50.874;4.762;2022-12-24T01:55:51;25.50;;;3.07;;
19965;SDS011;10144;50.874;4.762;2022-12-24T01:58:21;21.13;;;3.07;;
19965;SDS011;10144;50.874;4.762;2022-12-24T02:03:17;18.77;;;2.00;;
19965;SDS011;10144;50.874;4.762;2022-12-24T02:05:47;14.50;;;2.10;;
19965;SDS011;10144;50.874;4.762;2022-12-24T02:08:18;23.70;;;2.30;;
19965;SDS011;10144;50.874;4.762;2022-12-24T02:10:47;9.13;;;1.87;;
19965;SDS011;10144;50.874;4.762;2022-12-24T02:13:14;16.30;;;2.40;;
19965;SDS011;10144;50.874;4.762;2022-12-24T02:21:39;22.03;;;2.40;;
19965;SDS011;10144;50.874;4.762;2022-12-24T02:35:27;32.50;;;3.60;;
19965;SDS011;10144;50.874;4.762;2022-12-24T02:38:12;39.67;;;4.37;;
19965;SDS011;10144;50.874;4.762;2022-12-24T02:43:49;32.63;;;4.30;;
19965;SDS011;10144;50.874;4.762;2022-12-24T02:46:24;30.47;;;4.97;;
19965;SDS011;10144;50.874;4.762;2022-12-24T02:48:55;36.27;;;4.37;;
19965;SDS011;10144;50.874;4.762;2022-12-24T02:51:23;39.10;;;4.73;;
19965;SDS011;10144;50.874;4.762;2022-12-24T02:53:49;37.90;;;4.53;;
19965;SDS011;10144;50.874;4.762;2022-12-24T02:59:24;45.30;;;5.13;;
19965;SDS011;10144;50.874;4.762;2022-12-24T03:10:54;35.80;;;4.07;;
19965;SDS011;10144;50.874;4.762;2022-12-24T03:13:22;25.10;;;4.40;;
19965;SDS011;10144;50.874;4.762;2022-12-24T03:15:49;28.77;;;4.13;;
19965;SDS011;10144;50.874;4.762;2022-12-24T03:18:20;33.10;;;3.63;;
19965;SDS011;10144;50.874;4.762;2022-12-24T03:24:09;35.73;;;4.23;;
19965;SDS011;10144;50.874;4.762;2022-12-24T03:26:36;29.23;;;4.37;;
19965;SDS011;10144;50.874;4.762;2022-12-24T03:29:09;35.77;;;4.73;;
19965;SDS011;10144;50.874;4.762;2022-12-24T03:36:49;38.93;;;4.30;;
19965;SDS011;10144;50.874;4.762;2022-12-24T03:39:21;34.27;;;4.30;;
19965;SDS011;10144;50.874;4.762;2022-12-24T03:44:19;27.83;;;4.50;;
19965;SDS011;10144;50.874;4.762;2022-12-24T03:46:44;29.33;;;4.43;;
19965;SDS011;10144;50.874;4.762;2022-12-24T03:49:12;32.77;;;4.63;;
19965;SDS011;10144;50.874;4.762;2022-12-24T03:51:41;28.10;;;4.37;;
19965;SDS011;10144;50.874;4.762;2022-12-24T03:54:08;39.30;;;5.70;;
19965;SDS011;10144;50.874;4.762;2022-12-24T03:56:37;30.37;;;5.13;;
19965;SDS011;10144;50.874;4.762;2022-12-24T04:04:03;43.13;;;5.70;;
19965;SDS011;10144;50.874;4.762;2022-12-24T04:06:30;48.67;;;5.63;;
19965;SDS011;10144;50.874;4.762;2022-12-24T04:14:01;40.93;;;5.57;;
19965;SDS011;10144;50.874;4.762;2022-12-24T04:16:27;44.97;;;5.70;;
19965;SDS011;10144;50.874;4.762;2022-12-24T04:18:52;44.90;;;5.87;;
19965;SDS011;10144;50.874;4.762;2022-12-24T04:21:21;29.97;;;4.77;;
19965;SDS011;10144;50.874;4.762;2022-12-24T04:23:47;42.17;;;5.80;;
19965;SDS011;10144;50.874;4.762;2022-12-24T04:26:16;46.93;;;5.07;;
19965;SDS011;10144;50.874;4.762;2022-12-24T04:31:16;53.63;;;5.77;;
19965;SDS011;10144;50.874;4.762;2022-12-24T04:33:45;44.43;;;5.50;;
19965;SDS011;10144;50.874;4.762;2022-12-24T04:36:13;43.93;;;5.40;;
19965;SDS011;10144;50.874;4.762;2022-12-24T04:38:45;37.03;;;5.43;;
19965;SDS011;10144;50.874;4.762;2022-12-24T04:41:14;46.17;;;5.40;;
19965;SDS011;10144;50.874;4.762;2022-12-24T04:43:47;54.07;;;5.90;;
19965;SDS011;10144;50.874;4.762;2022-12-24T04:46:18;39.10;;;4.93;;
19965;SDS011;10144;50.874;4.762;2022-12-24T04:48:52;49.83;;;5.30;;
19965;SDS011;10144;50.874;4.762;2022-12-24T04:51:19;48.33;;;5.43;;
19965;SDS011;10144;50.874;4.762;2022-12-24T04:53:46;57.17;;;5.60;;
19965;SDS011;10144;50.874;4.762;2022-12-24T04:58:50;40.17;;;5.23;;
19965;SDS011;10144;50.874;4.762;2022-12-24T05:01:20;35.20;;;5.43;;
19965;SDS011;10144;50.874;4.762;2022-12-24T05:03:49;39.23;;;4.83;;
19965;SDS011;10144;50.874;4.762;2022-12-24T05:06:23;41.43;;;4.70;;
19965;SDS011;10144;50.874;4.762;2022-12-24T05:08:54;49.43;;;4.73;;
19965;SDS011;10144;50.874;4.762;2022-12-24T05:11:29;50.97;;;5.13;;
19965;SDS011;10144;50.874;4.762;2022-12-24T05:16:52;47.87;;;5.37;;
19965;SDS011;10144;50.874;4.762;2022-12-24T05:19:21;37.90;;;5.17;;
19965;SDS011;10144;50.874;4.762;2022-12-24T05:21:46;46.37;;;5.43;;
19965;SDS011;10144;50.874;4.762;2022-12-24T05:24:41;50.73;;;5.47;;
19965;SDS011;10144;50.874;4.762;2022-12-24T05:27:25;46.90;;;5.50;;
19965;SDS011;10144;50.874;4.762;2022-12-24T05:29:53;52.30;;;5.53;;
19965;SDS011;10144;50.874;4.762;2022-12-24T05:32:22;49.97;;;5.43;;
19965;SDS011;10144;50.874;4.762;2022-12-24T05:37:18;41.77;;;4.50;;
19965;SDS011;10144;50.874;4.762;2022-12-24T05:39:47;41.30;;;5.67;;
19965;SDS011;10144;50.874;4.762;2022-12-24T05:42:16;45.30;;;5.60;;
19965;SDS011;10144;50.874;4.762;2022-12-24T05:47:14;48.17;;;5.27;;
19965;SDS011;10144;50.874;4.762;2022-12-24T05:49:39;45.60;;;5.33;;
19965;SDS011;10144;50.874;4.762;2022-12-24T05:52:06;34.57;;;5.03;;
19965;SDS011;10144;50.874;4.762;2022-12-24T05:54:32;42.57;;;5.27;;
19965;SDS011;10144;50.874;4.762;2022-12-24T05:59:29;40.53;;;4.73;;
19965;SDS011;10144;50.874;4.762;2022-12-24T06:04:24;51.93;;;5.93;;
19965;SDS011;10144;50.874;4.762;2022-12-24T06:07:01;56.70;;;5.90;;
19965;SDS011;10144;50.874;4.762;2022-12-24T06:09:26;45.23;;;5.13;;
19965;SDS011;10144;50.874;4.762;2022-12-24T06:11:52;47.93;;;5.40;;
19965;SDS011;10144;50.874;4.762;2022-12-24T06:14:21;44.13;;;5.17;;
19965;SDS011;10144;50.874;4.762;2022-12-24T06:16:46;43.57;;;5.57;;
19965;SDS011;10144;50.874;4.762;2022-12-24T06:19:14;49.70;;;5.40;;
19965;SDS011;10144;50.874;4.762;2022-12-24T06:26:47;36.47;;;5.17;;
19965;SDS011;10144;50.874;4.762;2022-12-24T06:31:41;46.57;;;5.17;;
19965;SDS011;10144;50.874;4.762;2022-12-24T06:36:37;51.23;;;5.57;;
19965;SDS011;10144;50.874;4.762;2022-12-24T06:41:38;41.83;;;5.10;;
19965;SDS011;10144;50.874;4.762;2022-12-24T06:44:09;47.70;;;5.10;;
19965;SDS011;10144;50.874;4.762;2022-12-24T06:46:38;46.63;;;5.40;;
19965;SDS011;10144;50.874;4.762;2022-12-24T06:49:06;43.23;;;5.00;;
19965;SDS011;10144;50.874;4.762;2022-12-24T06:51:32;43.73;;;5.13;;
19965;SDS011;10144;50.874;4.762;2022-12-24T06:54:07;45.83;;;5.40;;
19965;SDS011;10144;50.874;4.762;2022-12-24T06:56:36;42.33;;;5.00;;
19965;SDS011;10144;50.874;4.762;2022-12-24T06:59:11;37.50;;;5.77;;
19965;SDS011;10144;50.874;4.762;2022-12-24T07:01:52;50.27;;;5.50;;
19965;SDS011;10144;50.874;4.762;2022-12-24T07:04:20;44.30;;;5.40;;
19965;SDS011;10144;50.874;4.762;2022-12-24T07:06:46;45.53;;;5.10;;
19965;SDS011;10144;50.874;4.762;2022-12-24T07:09:13;50.03;;;5.40;;
19965;SDS011;10144;50.874;4.762;2022-12-24T07:11:48;41.53;;;5.20;;
19965;SDS011;10144;50.874;4.762;2022-12-24T07:14:17;37.13;;;4.87;;
19965;SDS011;10144;50.874;4.762;2022-12-24T07:16:42;47.50;;;5.77;;
19965;SDS011;10144;50.874;4.762;2022-12-24T07:19:09;54.10;;;5.70;;
19965;SDS011;10144;50.874;4.762;2022-12-24T07:21:36;54.97;;;5.73;;
19965;SDS011;10144;50.874;4.762;2022-12-24T07:24:05;49.97;;;5.83;;
19965;SDS011;10144;50.874;4.762;2022-12-24T07:26:32;53.77;;;5.53;;
19965;SDS011;10144;50.874;4.762;2022-12-24T07:29:01;52.27;;;5.40;;
19965;SDS011;10144;50.874;4.762;2022-12-24T07:31:27;42.30;;;5.73;;
19965;SDS011;10144;50.874;4.762;2022-12-24T07:33:54;48.10;;;5.77;;
19965;SDS011;10144;50.874;4.762;2022-12-24T07:36:22;46.90;;;5.77;;
19965;SDS011;10144;50.874;4.762;2022-12-24T07:38:54;46.40;;;5.50;;
19965;SDS011;10144;50.874;4.762;2022-12-24T07:41:26;48.47;;;4.83;;
19965;SDS011;10144;50.874;4.762;2022-12-24T07:43:55;43.10;;;5.20;;
19965;SDS011;10144;50.874;4.762;2022-12-24T07:46:21;41.53;;;4.90;;
19965;SDS011;10144;50.874;4.762;2022-12-24T07:48:47;50.40;;;6.00;;
19965;SDS011;10144;50.874;4.762;2022-12-24T07:51:12;47.43;;;6.10;;
19965;SDS011;10144;50.874;4.762;2022-12-24T07:53:38;50.97;;;6.00;;
19965;SDS011;10144;50.874;4.762;2022-12-24T07:56:03;47.90;;;5.47;;
19965;SDS011;10144;50.874;4.762;2022-12-24T07:58:29;46.67;;;5.40;;
19965;SDS011;10144;50.874;4.762;2022-12-24T08:00:56;52.27;;;5.20;;
19965;SDS011;10144;50.874;4.762;2022-12-24T08:03:26;61.97;;;6.43;;
19965;SDS011;10144;50.874;4.762;2022-12-24T08:05:51;40.83;;;5.40;;
19965;SDS011;10144;50.874;4.762;2022-12-24T08:08:17;54.87;;;5.60;;
19965;SDS011;10144;50.874;4.762;2022-12-24T08:15:54;45.87;;;5.07;;
19965;SDS011;10144;50.874;4.762;2022-12-24T08:21:42;42.47;;;5.20;;
19965;SDS011;10144;50.874;4.762;2022-12-24T08:27:30;47.57;;;5.40;;
19965;SDS011;10144;50.874;4.762;2022-12-24T08:33:18;42.67;;;5.37;;
19965;SDS011;10144;50.874;4.762;2022-12-24T08:39:08;40.93;;;5.10;;
19965;SDS011;10144;50.874;4.762;2022-12-24T08:44:56;31.60;;;4.40;;
19965;SDS011;10144;50.874;4.762;2022-12-24T08:50:46;55.10;;;5.50;;
19965;SDS011;10144;50.874;4.762;2022-12-24T08:56:34;30.25;;;4.32;;
19965;SDS011;10144;50.874;4.762;2022-12-24T09:02:22;47.72;;;5.13;;
19965;SDS011;10144;50.874;4.762;2022-12-24T09:16:16;34.58;;;4.32;;
19965;SDS011;10144;50.874;4.762;2022-12-24T09:18:42;32.00;;;4.88;;
19965;SDS011;10144;50.874;4.762;2022-12-24T09:34:52;34.30;;;4.00;;
19965;SDS011;10144;50.874;4.762;2022-12-24T09:37:42;45.88;;;5.10;;
19965;SDS011;10144;50.874;4.762;2022-12-24T09:43:30;37.05;;;4.70;;
19965;SDS011;10144;50.874;4.762;2022-12-24T09:49:22;34.97;;;5.00;;
19965;SDS011;10144;50.874;4.762;2022-12-24T10:10:47;36.63;;;4.75;;
19965;SDS011;10144;50.874;4.762;2022-12-24T10:19:20;34.70;;;5.55;;
19965;SDS011;10144;50.874;4.762;2022-12-24T10:25:36;34.70;;;4.68;;
19965;SDS011;10144;50.874;4.762;2022-12-24T10:31:39;37.10;;;4.25;;
19965;SDS011;10144;50.874;4.762;2022-12-24T10:37:32;31.30;;;4.32;;
19965;SDS011;10144;50.874;4.762;2022-12-24T10:43:21;39.72;;;4.95;;
19965;SDS011;10144;50.874;4.762;2022-12-24T10:49:15;29.63;;;4.43;;
19965;SDS011;10144;50.874;4.762;2022-12-24T11:04:16;30.40;;;4.72;;
19965;SDS011;10144;50.874;4.762;2022-12-24T11:10:12;29.50;;;3.65;;
19965;SDS011;10144;50.874;4.762;2022-12-24T11:12:53;30.42;;;3.92;;
19965;SDS011;10144;50.874;4.762;2022-12-24T11:15:30;34.17;;;4.50;;
19965;SDS011;10144;50.874;4.762;2022-12-24T11:47:26;37.45;;;4.70;;
19965;SDS011;10144;50.874;4.762;2022-12-24T11:52:40;32.95;;;4.43;;
19965;SDS011;10144;50.874;4.762;2022-12-24T12:01:19;36.65;;;5.25;;
19965;SDS011;10144;50.874;4.762;2022-12-24T12:07:24;37.53;;;4.75;;
19965;SDS011;10144;50.874;4.762;2022-12-24T12:13:22;38.85;;;4.90;;
19965;SDS011;10144;50.874;4.762;2022-12-24T12:38:26;29.70;;;4.03;;
19965;SDS011;10144;50.874;4.762;2022-12-24T13:40:27;27.73;;;4.25;;
19965;SDS011;10144;50.874;4.762;2022-12-24T13:53:04;28.42;;;4.00;;
19965;SDS011;10144;50.874;4.762;2022-12-24T13:59:08;32.47;;;4.18;;
19965;SDS011;10144;50.874;4.762;2022-12-24T14:09:09;22.48;;;3.85;;
19965;SDS011;10144;50.874;4.762;2022-12-24T14:22:18;33.03;;;4.38;;
19965;SDS011;10144;50.874;4.762;2022-12-24T14:28:02;28.55;;;3.65;;
19965;SDS011;10144;50.874;4.762;2022-12-24T14:34:03;28.13;;;4.28;;
19965;SDS011;10144;50.874;4.762;2022-12-24T14:39:53;28.10;;;3.90;;
19965;SDS011;10144;50.874;4.762;2022-12-24T14:58:32;35.03;;;4.68;;
19965;SDS011;10144;50.874;4.762;2022-12-24T15:04:23;27.52;;;4.80;;
19965;SDS011;10144;50.874;4.762;2022-12-24T15:10:21;32.72;;;4.90;;
19965;SDS011;10144;50.874;4.762;2022-12-24T15:16:33;40.88;;;4.82;;
19965;SDS011;10144;50.874;4.762;2022-12-24T15:28:18;33.47;;;5.18;;
19965;SDS011;10144;50.874;4.762;2022-12-24T15:34:53;40.87;;;7.17;;
19965;SDS011;10144;50.874;4.762;2022-12-24T15:37:06;47.83;;;7.30;;
19965;SDS011;10144;50.874;4.762;2022-12-24T15:43:02;52.30;;;9.90;;
19965;SDS011;10144;50.874;4.762;2022-12-24T15:48:52;53.43;;;14.77;;
19965;SDS011;10144;50.874;4.762;2022-12-24T15:54:46;55.40;;;14.40;;
19965;SDS011;10144;50.874;4.762;2022-12-24T16:00:35;49.43;;;13.50;;
19965;SDS011;10144;50.874;4.762;2022-12-24T16:06:23;63.57;;;21.03;;
19965;SDS011;10144;50.874;4.762;2022-12-24T16:11:22;80.10;;;22.63;;
19965;SDS011;10144;50.874;4.762;2022-12-24T16:17:14;50.00;;;10.50;;
19965;SDS011;10144;50.874;4.762;2022-12-24T16:23:13;46.50;;;8.20;;
19965;SDS011;10144;50.874;4.762;2022-12-24T16:29:07;50.37;;;7.83;;
19965;SDS011;10144;50.874;4.762;2022-12-24T16:34:56;51.83;;;7.93;;
19965;SDS011;10144;50.874;4.762;2022-12-24T16:40:44;52.30;;;8.20;;
19965;SDS011;10144;50.874;4.762;2022-12-24T16:46:32;46.97;;;9.13;;
19965;SDS011;10144;50.874;4.762;2022-12-24T16:52:21;59.83;;;13.03;;
19965;SDS011;10144;50.874;4.762;2022-12-24T16:58:12;63.80;;;13.50;;
19965;SDS011;10144;50.874;4.762;2022-12-24T17:04:01;57.33;;;11.93;;
19965;SDS011;10144;50.874;4.762;2022-12-24T17:09:49;58.17;;;12.57;;
19965;SDS011;10144;50.874;4.762;2022-12-24T17:15:40;49.77;;;11.10;;
19965;SDS011;10144;50.874;4.762;2022-12-24T17:21:28;63.07;;;11.53;;
19965;SDS011;10144;50.874;4.762;2022-12-24T17:27:15;52.07;;;10.33;;
19965;SDS011;10144;50.874;4.762;2022-12-24T17:33:03;49.13;;;11.00;;
19965;SDS011;10144;50.874;4.762;2022-12-24T17:38:51;53.87;;;11.83;;
19965;SDS011;10144;50.874;4.762;2022-12-24T17:44:39;55.40;;;9.70;;
19965;SDS011;10144;50.874;4.762;2022-12-24T17:50:26;54.57;;;12.23;;
19965;SDS011;10144;50.874;4.762;2022-12-24T17:56:14;56.83;;;12.07;;
19965;SDS011;10144;50.874;4.762;2022-12-24T18:02:03;55.33;;;10.67;;
19965;SDS011;10144;50.874;4.762;2022-12-24T18:07:51;47.20;;;10.93;;
19965;SDS011;10144;50.874;4.762;2022-12-24T18:13:40;54.07;;;11.27;;
19965;SDS011;10144;50.874;4.762;2022-12-24T18:19:28;51.73;;;10.73;;
19965;SDS011;10144;50.874;4.762;2022-12-24T18:25:16;46.50;;;9.53;;
19965;SDS011;10144;50.874;4.762;2022-12-24T18:31:12;47.67;;;11.10;;
19965;SDS011;10144;50.874;4.762;2022-12-24T18:37:02;55.83;;;10.23;;
19965;SDS011;10144;50.874;4.762;2022-12-24T18:42:51;62.87;;;13.27;;
19965;SDS011;10144;50.874;4.762;2022-12-24T18:48:39;56.33;;;11.30;;
19965;SDS011;10144;50.874;4.762;2022-12-24T18:54:27;56.20;;;12.93;;
19965;SDS011;10144;50.874;4.762;2022-12-24T19:36:09;51.00;;;10.80;;
19965;SDS011;10144;50.874;4.762;2022-12-24T19:41:59;36.73;;;9.90;;
19965;SDS011;10144;50.874;4.762;2022-12-24T19:47:50;49.87;;;10.40;;
19965;SDS011;10144;50.874;4.762;2022-12-24T19:51:10;52.03;;;10.70;;
19965;SDS011;10144;50.874;4.762;2022-12-24T19:57:07;41.00;;;9.53;;
19965;SDS011;10144;50.874;4.762;2022-12-24T20:06:21;41.23;;;9.17;;
19965;SDS011;10144;50.874;4.762;2022-12-24T20:12:12;47.97;;;8.87;;
19965;SDS011;10144;50.874;4.762;2022-12-24T20:18:00;37.57;;;8.53;;
19965;SDS011;10144;50.874;4.762;2022-12-24T20:23:47;38.67;;;8.23;;
19965;SDS011;10144;50.874;4.762;2022-12-24T20:29:35;40.87;;;8.20;;
19965;SDS011;10144;50.874;4.762;2022-12-24T20:35:23;32.07;;;8.33;;
19965;SDS011;10144;50.874;4.762;2022-12-24T20:41:12;37.37;;;7.20;;
19965;SDS011;10144;50.874;4.762;2022-12-24T20:47:01;37.63;;;9.27;;
19965;SDS011;10144;50.874;4.762;2022-12-24T20:52:50;36.90;;;8.60;;
19965;SDS011;10144;50.874;4.762;2022-12-24T20:58:38;35.57;;;7.33;;
19965;SDS011;10144;50.874;4.762;2022-12-24T21:04:26;30.60;;;8.17;;
19965;SDS011;10144;50.874;4.762;2022-12-24T21:10:14;32.20;;;7.47;;
19965;SDS011;10144;50.874;4.762;2022-12-24T21:16:03;34.47;;;8.57;;
19965;SDS011;10144;50.874;4.762;2022-12-24T21:21:51;33.30;;;7.60;;
19965;SDS011;10144;50.874;4.762;2022-12-24T21:27:39;30.37;;;6.73;;
19965;SDS011;10144;50.874;4.762;2022-12-24T21:33:27;23.30;;;6.23;;
19965;SDS011;10144;50.874;4.762;2022-12-24T21:39:16;39.83;;;6.47;;
19965;SDS011;10144;50.874;4.762;2022-12-24T21:45:04;43.33;;;6.87;;
19965;SDS011;10144;50.874;4.762;2022-12-24T21:50:53;29.17;;;7.10;;
19965;SDS011;10144;50.874;4.762;2022-12-24T21:53:19;24.53;;;6.70;;
19965;SDS011;10144;50.874;4.762;2022-12-24T22:05:30;31.07;;;6.43;;
19965;SDS011;10144;50.874;4.762;2022-12-24T22:08:34;26.83;;;6.90;;
19965;SDS011;10144;50.874;4.762;2022-12-24T22:14:40;34.07;;;7.43;;
19965;SDS011;10144;50.874;4.762;2022-12-24T22:20:33;28.77;;;7.17;;
19965;SDS011;10144;50.874;4.762;2022-12-24T22:26:25;27.30;;;7.57;;
19965;SDS011;10144;50.874;4.762;2022-12-24T22:32:13;31.97;;;7.20;;
19965;SDS011;10144;50.874;4.762;2022-12-24T23:07:34;24.53;;;6.60;;
19965;SDS011;10144;50.874;4.762;2022-12-24T23:13:22;22.83;;;6.43;;
19965;SDS011;10144;50.874;4.762;2022-12-24T23:19:48;26.47;;;6.30;;
19965;SDS011;10144;50.874;4.762;2022-12-24T23:25:36;16.23;;;5.67;;
19965;SDS011;10144;50.874;4.762;2022-12-24T23:31:27;24.60;;;6.20;;
19965;SDS011;10144;50.874;4.762;2022-12-24T23:37:19;17.50;;;5.73;;
19965;SDS011;10144;50.874;4.762;2022-12-24T23:39:50;24.47;;;6.33;;
19965;SDS011;10144;50.874;4.762;2022-12-24T23:45:44;18.40;;;5.93;;
19965;SDS011;10144;50.874;4.762;2022-12-24T23:51:34;20.47;;;5.80;;
19965;SDS011;10144;50.874;4.762;2022-12-24T23:57:26;22.70;;;5.63;;
